Time;durP1;ratioP1;P1;durP2;ratioP2;P2;SDS_P1;SDS_P2;PMS_P1;PMS_P2;Temp;Humidity;BMP_temperature;BMP_pressure;BME280_temperature;BME280_humidity;BME280_pressure;Samples;Min_cycle;Max_cycle;Signal;HPM_P1;HPM_P2
2021/10/19 00:00:37;;;;;;;1.48;1.48;;;;;;;17.25;85.88;100230.97;4937967;29;20036;-76
2021/10/19 00:03:03;;;;;;;1.98;1.88;;;;;;;17.23;85.52;100224.94;4917901;29;20139;-78
2021/10/19 00:05:28;;;;;;;2.70;2.60;;;;;;;17.23;85.56;100216.66;4935838;29;20024;-77
2021/10/19 00:07:54;;;;;;;2.22;2.13;;;;;;;17.31;85.31;100228.09;4923796;29;20091;-77
2021/10/19 00:10:21;;;;;;;2.47;2.38;;;;;;;17.18;85.66;100213.22;4938925;29;20044;-78
2021/10/19 00:12:46;;;;;;;1.85;1.75;;;;;;;17.27;85.50;100225.97;4905436;29;20024;-76
2021/10/19 00:15:17;;;;;;;2.00;1.90;;;;;;;17.26;85.47;100232.59;4912019;29;20115;-76
2021/10/19 00:17:47;;;;;;;3.25;1.70;;;;;;;17.24;85.29;100221.06;4928465;29;20442;-77
2021/10/19 00:20:14;;;;;;;1.83;1.73;;;;;;;17.18;85.63;100215.97;4931586;29;20024;-77
2021/10/19 00:22:43;;;;;;;1.88;1.88;;;;;;;17.22;85.54;100226.06;4923129;29;20036;-77
2021/10/19 00:25:18;;;;;;;1.15;1.15;;;;;;;17.19;85.60;100226.72;4938935;29;20032;-77
2021/10/19 00:27:45;;;;;;;0.98;0.98;;;;;;;17.27;86.14;100230.66;4915538;29;20100;-78
2021/10/19 00:30:13;;;;;;;0.98;0.98;;;;;;;17.28;86.05;100235.06;4936678;29;20177;-78
2021/10/19 00:32:39;;;;;;;0.82;0.82;;;;;;;17.23;85.55;100222.19;4935798;29;20111;-76
2021/10/19 00:35:06;;;;;;;0.77;0.77;;;;;;;17.25;85.59;100230.97;4922158;29;20186;-77
2021/10/19 00:37:31;;;;;;;1.00;1.00;;;;;;;17.26;85.36;100232.59;4923215;29;20064;-75
2021/10/19 00:40:07;;;;;;;;;;;;;;;;;;;;;
2021/10/19 00:42:37;;;;;;;0.75;0.75;;;;;;;17.30;85.35;100234.72;4905285;29;20030;-77
2021/10/19 00:45:05;;;;;;;0.60;0.60;;;;;;;17.33;85.69;100225.81;4897314;29;20103;-76
2021/10/19 00:47:30;;;;;;;0.45;0.45;;;;;;;17.32;85.25;100229.69;4914243;29;20031;-77
2021/10/19 00:49:58;;;;;;;0.70;0.70;;;;;;;17.33;85.22;100231.34;4919082;29;20023;-79
2021/10/19 00:52:24;;;;;;;0.60;0.60;;;;;;;17.33;84.96;100220.28;4909063;29;20032;-76
2021/10/19 00:54:52;;;;;;;0.50;0.50;;;;;;;17.30;85.15;100229.22;4942429;29;20505;-76
2021/10/19 00:57:18;;;;;;;0.45;0.45;;;;;;;17.28;85.44;100230.31;4928468;29;20043;-75
2021/10/19 00:59:45;;;;;;;0.30;0.30;;;;;;;17.28;85.22;100232.28;4937771;29;20487;-75
2021/10/19 01:02:13;;;;;;;0.38;0.38;;;;;;;17.25;85.64;100232.91;4914957;29;20039;-75
2021/10/19 01:04:40;;;;;;;0.57;0.57;;;;;;;17.25;85.21;100230.16;4913657;29;20031;-75
2021/10/19 01:07:06;;;;;;;0.30;0.30;;;;;;;17.26;85.84;100232.59;4908890;29;20024;-76
2021/10/19 01:09:35;;;;;;;0.40;0.40;;;;;;;17.23;85.18;100215.81;4915363;29;20534;-75
2021/10/19 01:12:01;;;;;;;0.40;0.40;;;;;;;17.25;85.18;100225.44;4916524;29;20099;-76
2021/10/19 01:14:26;;;;;;;0.20;0.20;;;;;;;17.26;85.58;100227.06;4916167;29;20056;-75
2021/10/19 01:16:52;;;;;;;0.52;0.30;;;;;;;17.26;85.79;100227.06;4921568;29;20483;-76
2021/10/19 01:19:22;;;;;;;0.30;0.30;;;;;;;17.24;85.83;100217.47;4920875;29;20032;-77
2021/10/19 01:21:52;;;;;;;0.20;0.20;;;;;;;17.26;85.87;100221.56;4919622;29;20063;-77
2021/10/19 01:24:18;;;;;;;0.30;0.30;;;;;;;17.20;85.79;100222.81;4914021;29;20022;-78
2021/10/19 01:26:43;;;;;;;0.40;0.32;;;;;;;17.21;85.38;100218.91;4906003;29;20040;-79
2021/10/19 01:29:09;;;;;;;0.30;0.30;;;;;;;17.23;85.17;100221.34;4931596;29;20542;-75
2021/10/19 01:31:34;;;;;;;0.20;0.20;;;;;;;17.23;86.02;100218.59;4926731;29;20039;-76
2021/10/19 01:34:00;;;;;;;0.38;0.38;;;;;;;17.21;85.48;100207.84;4916437;29;20125;-75
2021/10/19 01:36:25;;;;;;;0.25;0.25;;;;;;;17.23;85.29;100216.66;4916481;29;20054;-75
2021/10/19 01:38:51;;;;;;;0.70;0.50;;;;;;;17.22;86.04;100226.06;4899147;29;20578;-76
2021/10/19 01:41:16;;;;;;;0.52;0.52;;;;;;;17.23;85.54;100230.47;4916036;29;20059;-75
2021/10/19 01:43:44;;;;;;;0.77;0.77;;;;;;;17.21;85.89;100224.44;4919249;29;20024;-75
2021/10/19 01:46:12;;;;;;;0.70;0.60;;;;;;;17.18;85.47;100225.06;4928618;29;20040;-79
2021/10/19 01:48:40;;;;;;;0.63;0.63;;;;;;;17.17;85.41;100223.47;4902774;29;20371;-78
2021/10/19 01:51:05;;;;;;;0.75;0.75;;;;;;;17.17;85.59;100223.47;4916676;29;20024;-78
2021/10/19 01:53:31;;;;;;;0.73;0.70;;;;;;;17.20;85.68;100216.47;4915930;29;20088;-78
2021/10/19 01:55:59;;;;;;;0.60;0.60;;;;;;;17.24;85.71;100209.19;4919237;29;20038;-77
2021/10/19 01:58:25;;;;;;;1.00;1.00;;;;;;;17.23;86.13;100205.59;4910278;29;20048;-77
2021/10/19 02:00:52;;;;;;;0.73;0.73;;;;;;;17.25;85.64;100208.84;4910635;29;20164;-77
2021/10/19 02:03:18;;;;;;;1.02;1.02;;;;;;;17.16;86.26;100199.72;4898209;29;20036;-77
2021/10/19 02:05:43;;;;;;;0.77;0.77;;;;;;;17.21;86.01;100204.28;4916227;29;20262;-77
2021/10/19 02:08:09;;;;;;;1.08;0.98;;;;;;;17.22;86.35;100215.03;4901242;29;20359;-77
2021/10/19 02:10:35;;;;;;;0.60;0.60;;;;;;;17.16;86.08;100194.19;4897910;29;20032;-78
2021/10/19 02:13:07;;;;;;;0.85;0.85;;;;;;;17.22;86.00;100192.91;4900487;29;20036;-75
2021/10/19 02:15:33;;;;;;;0.57;0.57;;;;;;;17.25;85.86;100185.94;4897387;29;20032;-75
2021/10/19 02:17:58;;;;;;;0.50;0.50;;;;;;;17.30;85.80;100174.75;4895358;29;21529;-74
2021/10/19 02:20:24;;;;;;;0.70;0.70;;;;;;;17.32;85.75;100183.53;4897781;29;20033;-74
2021/10/19 02:22:51;;;;;;;0.38;0.38;;;;;;;17.30;86.26;100183.03;4896246;29;20428;-73
2021/10/19 02:25:17;;;;;;;0.32;0.32;;;;;;;17.31;86.40;100181.09;4866370;29;20083;-74
2021/10/19 02:27:43;;;;;;;0.68;0.50;;;;;;;17.31;86.46;100190.19;4917167;29;20024;-76
2021/10/19 02:30:09;;;;;;;0.43;0.43;;;;;;;17.32;86.08;100185.47;4907875;29;20029;-75
2021/10/19 02:32:36;;;;;;;0.50;0.50;;;;;;;17.28;86.67;100179.78;4903681;29;20714;-75
2021/10/19 02:35:02;;;;;;;0.40;0.40;;;;;;;17.30;86.75;100165.66;4895064;29;20029;-76
2021/10/19 02:37:28;;;;;;;0.55;0.55;;;;;;;17.33;86.07;100157.53;4880658;29;20049;-74
2021/10/19 02:39:54;;;;;;;0.50;0.50;;;;;;;17.36;86.33;100159.69;4897571;29;20032;-75
2021/10/19 02:42:19;;;;;;;0.88;0.73;;;;;;;17.34;86.44;100150.88;4894894;29;20495;-77
2021/10/19 02:44:45;;;;;;;0.75;0.60;;;;;;;17.36;86.54;100154.16;4876025;29;20047;-76
2021/10/19 02:47:11;;;;;;;0.75;0.75;;;;;;;17.35;86.44;100163.56;4913077;29;20043;-75
2021/10/19 02:49:36;;;;;;;0.77;0.77;;;;;;;17.32;86.27;100157.84;4878716;29;20028;-75
2021/10/19 02:52:02;;;;;;;0.98;0.75;;;;;;;17.35;86.14;100152.50;4895306;29;20115;-76
2021/10/19 02:54:27;;;;;;;0.63;0.63;;;;;;;17.37;86.65;100149.44;4881030;29;20060;-75
2021/10/19 02:56:53;;;;;;;0.63;0.63;;;;;;;17.34;86.60;100170.22;4897200;29;20036;-75
2021/10/19 02:59:18;;;;;;;0.63;0.52;;;;;;;17.34;87.18;100139.00;4900703;29;20478;-75
2021/10/19 03:01:44;;;;;;;0.65;0.65;;;;;;;17.31;86.86;100134.94;4908011;29;20064;-74
2021/10/19 03:04:09;;;;;;;0.60;0.60;;;;;;;17.29;86.79;100126.16;4915137;29;20514;-73
2021/10/19 03:06:35;;;;;;;0.60;0.60;;;;;;;17.35;86.67;100121.31;4903229;29;20032;-75
2021/10/19 03:09:02;;;;;;;0.55;0.50;;;;;;;17.32;86.67;100122.75;4902864;29;20410;-75
2021/10/19 03:11:27;;;;;;;0.32;0.32;;;;;;;17.34;87.53;100128.75;4918730;29;20119;-74
2021/10/19 03:13:53;;;;;;;0.43;0.40;;;;;;;17.32;87.08;100113.63;4928160;29;20056;-75
2021/10/19 03:16:18;;;;;;;0.22;0.22;;;;;;;17.33;87.27;100131.84;4921772;29;20039;-76
2021/10/19 03:18:44;;;;;;;0.47;0.35;;;;;;;17.38;87.03;100123.44;4943372;29;20036;-76
2021/10/19 03:21:10;;;;;;;0.43;0.35;;;;;;;17.32;86.96;100135.72;4928309;29;20028;-77
2021/10/19 03:23:36;;;;;;;0.30;0.30;;;;;;;17.36;86.97;100133.97;4930710;29;20020;-75
2021/10/19 03:26:03;;;;;;;0.40;0.40;;;;;;;17.32;87.53;100121.91;4899662;29;20028;-75
2021/10/19 03:28:29;;;;;;;0.43;0.43;;;;;;;17.27;87.35;100145.81;4915224;29;20131;-75
2021/10/19 03:30:54;;;;;;;0.40;0.40;;;;;;;17.24;87.92;100129.88;4918262;29;20460;-76
2021/10/19 03:33:20;;;;;;;0.57;0.57;;;;;;;17.26;87.73;100127.59;4914788;29;20483;-76
2021/10/19 03:35:45;;;;;;;0.40;0.40;;;;;;;17.26;87.82;100137.84;4903449;29;20079;-76
2021/10/19 03:38:11;;;;;;;0.40;0.35;;;;;;;17.25;88.02;100137.00;4901486;29;20060;-76
2021/10/19 03:40:36;;;;;;;0.45;0.45;;;;;;;17.25;88.18;100128.72;4904134;29;20039;-74
2021/10/19 03:43:01;;;;;;;0.22;0.22;;;;;;;17.30;87.46;100130.53;4898902;29;20406;-75
2021/10/19 03:45:27;;;;;;;0.20;0.20;;;;;;;17.36;88.09;100125.69;4899805;29;20110;-76
2021/10/19 03:47:52;;;;;;;0.30;0.30;;;;;;;17.41;87.37;100122.78;4932793;29;20430;-77
2021/10/19 03:50:18;;;;;;;0.30;0.30;;;;;;;17.40;87.34;100134.97;4912911;29;20438;-75
2021/10/19 03:52:44;;;;;;;2.25;0.30;;;;;;;17.40;87.15;100129.44;4892978;29;20033;-77
2021/10/19 03:55:09;;;;;;;0.30;0.30;;;;;;;17.40;87.72;100126.69;4933353;29;20036;-77
2021/10/19 03:57:35;;;;;;;0.30;0.30;;;;;;;17.39;87.62;100125.03;4917077;29;20046;-77
2021/10/19 04:00:02;;;;;;;0.35;0.35;;;;;;;17.44;87.98;100133.19;4914822;29;20072;-76
2021/10/19 04:02:28;;;;;;;0.30;0.30;;;;;;;17.41;87.25;100133.84;4916107;29;20029;-75
2021/10/19 04:04:53;;;;;;;0.30;0.30;;;;;;;17.45;87.59;100129.31;4897976;29;21491;-76
2021/10/19 04:07:19;;;;;;;0.20;0.20;;;;;;;17.46;87.83;100128.16;4913479;29;20036;-76
2021/10/19 04:09:44;;;;;;;0.10;0.10;;;;;;;17.44;87.27;100125.72;4917081;29;20083;-76
2021/10/19 04:12:10;;;;;;;0.35;0.30;;;;;;;17.44;87.26;100130.44;4930201;29;20036;-77
2021/10/19 04:14:35;;;;;;;0.43;0.43;;;;;;;17.44;87.76;100117.41;4911656;29;20034;-75
2021/10/19 04:17:01;;;;;;;0.20;0.20;;;;;;;17.46;87.48;100119.88;4933965;29;20035;-76
2021/10/19 04:19:27;;;;;;;0.20;0.20;;;;;;;17.44;87.57;100124.91;4907566;29;20032;-76
2021/10/19 04:21:53;;;;;;;0.30;0.20;;;;;;;17.39;87.98;100119.50;4916594;29;20067;-75
2021/10/19 04:24:18;;;;;;;0.30;0.30;;;;;;;17.42;87.84;100124.41;4917235;29;20046;-75
2021/10/19 04:26:44;;;;;;;1.88;0.20;;;;;;;17.35;88.61;100121.31;4902491;29;20016;-74
2021/10/19 04:29:10;;;;;;;4.70;0.50;;;;;;;17.36;88.35;100117.38;4914424;29;20353;-75
2021/10/19 04:31:39;;;;;;;0.30;0.30;;;;;;;17.38;88.15;100101.31;4902619;29;20390;-75
2021/10/19 04:34:05;;;;;;;0.20;0.20;;;;;;;17.40;88.47;100110.09;4920611;29;20640;-75
2021/10/19 04:36:32;;;;;;;0.20;0.20;;;;;;;17.40;88.00;100104.56;4901144;29;20032;-75
2021/10/19 04:38:57;;;;;;;0.20;0.20;;;;;;;17.38;88.63;100106.84;4913259;29;20398;-75
2021/10/19 04:41:22;;;;;;;0.30;0.30;;;;;;;17.37;88.21;100102.44;4916473;29;20107;-75
2021/10/19 04:43:48;;;;;;;0.20;0.20;;;;;;;17.36;88.79;100114.63;4890057;29;20024;-75
2021/10/19 04:46:14;;;;;;;0.30;0.30;;;;;;;17.37;88.55;100110.72;4918492;29;20044;-76
2021/10/19 04:48:40;;;;;;;0.20;0.20;;;;;;;17.39;88.58;100108.44;4917620;29;20139;-75
2021/10/19 04:51:05;;;;;;;0.40;0.40;;;;;;;17.41;88.46;100120.03;4904294;29;20594;-75
2021/10/19 04:53:31;;;;;;;0.22;0.22;;;;;;;17.39;88.11;100113.97;4936310;29;20032;-75
2021/10/19 04:55:57;;;;;;;4.15;0.47;;;;;;;17.35;89.00;100115.78;4902072;29;20078;-74
2021/10/19 04:58:24;;;;;;;0.47;0.47;;;;;;;17.28;89.28;100103.22;4911505;29;20511;-75
2021/10/19 05:00:50;;;;;;;0.52;0.52;;;;;;;17.35;89.07;100107.50;4919469;29;20047;-75
2021/10/19 05:03:20;;;;;;;0.75;0.68;;;;;;;17.34;89.31;100127.97;4921724;29;20025;-75
2021/10/19 05:05:46;;;;;;;0.38;0.38;;;;;;;17.26;89.45;100122.06;4902978;29;20051;-76
2021/10/19 05:08:12;;;;;;;1.17;0.40;;;;;;;17.31;88.85;100128.59;4916214;29;20103;-75
2021/10/19 05:10:37;;;;;;;0.50;0.50;;;;;;;17.25;89.00;100125.97;4917061;29;20024;-72
2021/10/19 05:13:03;;;;;;;0.38;0.38;;;;;;;17.30;88.97;100126.97;4917927;29;20040;-74
2021/10/19 05:15:28;;;;;;;0.28;0.28;;;;;;;17.29;88.91;100153.78;4911686;29;20084;-73
2021/10/19 05:17:54;;;;;;;0.30;0.30;;;;;;;17.26;89.23;100124.03;4909443;29;20049;-74
2021/10/19 05:20:20;;;;;;;0.50;0.50;;;;;;;17.25;89.48;100120.44;4920327;29;20040;-74
2021/10/19 05:22:46;;;;;;;0.40;0.40;;;;;;;17.27;89.31;100123.72;4908402;29;20084;-75
2021/10/19 05:25:12;;;;;;;0.25;0.20;;;;;;;17.29;89.94;100142.75;4904189;29;20028;-75
2021/10/19 05:27:41;;;;;;;0.43;0.20;;;;;;;17.27;89.63;100123.72;4899769;29;20132;-74
2021/10/19 05:30:07;;;;;;;0.57;0.35;;;;;;;17.30;89.81;100122.25;4929365;29;20032;-75
2021/10/19 05:32:33;;;;;;;0.30;0.30;;;;;;;17.33;89.25;100126.31;4913895;29;20060;-77
2021/10/19 05:35:05;;;;;;;0.50;0.50;;;;;;;17.23;89.65;100117.19;4925048;29;20032;-78
2021/10/19 05:37:31;;;;;;;1.25;0.77;;;;;;;17.30;89.55;100113.16;4891326;29;20036;-76
2021/10/19 05:40:04;;;;;;;0.98;0.98;;;;;;;17.33;89.59;100109.75;4911339;29;20109;-78
2021/10/19 05:42:30;;;;;;;1.75;1.65;;;;;;;17.31;89.27;100107.28;4918735;29;20469;-76
2021/10/19 05:44:56;;;;;;;2.00;1.90;;;;;;;17.19;89.60;100124.47;4919531;29;20039;-77
2021/10/19 05:47:23;;;;;;;1.80;1.70;;;;;;;17.17;89.96;100107.41;4906859;29;20028;-78
2021/10/19 05:49:49;;;;;;;2.40;2.20;;;;;;;17.27;89.87;100118.19;4934219;29;20024;-76
2021/10/19 05:52:14;;;;;;;2.30;2.17;;;;;;;17.34;89.94;100123.22;4917639;29;20031;-75
2021/10/19 05:54:40;;;;;;;2.40;2.20;;;;;;;17.33;89.45;100120.78;4913261;29;20032;-73
2021/10/19 05:57:05;;;;;;;1.88;1.65;;;;;;;17.33;89.81;100123.56;4913043;29;20051;-73
2021/10/19 05:59:31;;;;;;;1.67;1.58;;;;;;;17.35;89.10;100122.09;4929542;29;20035;-74
2021/10/19 06:02:06;;;;;;;1.83;1.73;;;;;;;17.31;89.45;100128.59;4909584;29;20063;-74
2021/10/19 06:04:32;;;;;;;1.77;1.67;;;;;;;17.30;89.17;100122.25;4904457;29;20485;-74
2021/10/19 06:07:03;;;;;;;1.63;1.52;;;;;;;17.25;89.46;100114.91;4896468;29;20036;-77
2021/10/19 06:09:32;;;;;;;3.17;2.97;;;;;;;17.27;89.56;100140.28;4929121;29;20054;-76
2021/10/19 06:11:57;;;;;;;4.38;3.53;;;;;;;17.13;90.44;100128.50;4888206;29;20036;-76
2021/10/19 06:14:24;;;;;;;4.40;3.75;;;;;;;17.14;90.58;100130.13;4910187;29;20036;-75
2021/10/19 06:16:51;;;;;;;7.38;5.45;;;;;;;17.12;90.64;100157.25;4899973;29;20036;-76
2021/10/19 06:19:16;;;;;;;21.92;6.88;;;;;;;17.10;91.11;100140.22;4909747;29;20443;-75
2021/10/19 06:21:43;;;;;;;10.52;7.32;;;;;;;17.11;90.63;100136.28;4914022;29;20028;-75
2021/10/19 06:24:09;;;;;;;19.73;11.40;;;;;;;17.15;90.85;100142.81;4915744;29;20467;-76
2021/10/19 06:26:36;;;;;;;29.00;11.45;;;;;;;17.15;90.14;100130.97;4907001;29;20123;-76
2021/10/19 06:29:03;;;;;;;31.35;13.77;;;;;;;17.07;91.13;100124.28;4911252;29;20072;-76
2021/10/19 06:31:29;;;;;;;28.88;14.35;;;;;;;17.09;90.88;100127.50;4916205;29;20067;-75
2021/10/19 06:33:54;;;;;;;34.15;14.20;;;;;;;17.08;90.62;100134.16;4915481;29;20446;-74
2021/10/19 06:36:20;;;;;;;28.52;14.10;;;;;;;17.07;91.04;100133.34;4914314;29;20037;-76
2021/10/19 06:38:45;;;;;;;28.38;14.98;;;;;;;17.05;91.08;100121.00;4904952;29;20024;-76
2021/10/19 06:41:13;;;;;;;37.35;15.60;;;;;;;17.02;91.08;100138.19;4878768;29;20027;-76
2021/10/19 06:43:39;;;;;;;38.38;14.73;;;;;;;17.08;90.27;100125.88;4911239;29;20032;-75
2021/10/19 06:46:05;;;;;;;29.77;15.52;;;;;;;17.06;90.28;100150.25;4893400;29;20404;-75
2021/10/19 06:48:30;;;;;;;35.10;17.90;;;;;;;17.05;90.23;100121.00;4899615;29;20059;-76
2021/10/19 06:50:56;;;;;;;34.55;16.90;;;;;;;16.99;89.98;100128.59;4899276;29;20039;-76
2021/10/19 06:53:21;;;;;;;40.42;16.92;;;;;;;16.97;90.47;100130.88;4893741;29;20398;-74
2021/10/19 06:55:47;;;;;;;41.22;17.02;;;;;;;16.81;90.03;100115.81;4896215;29;20396;-76
2021/10/19 06:58:12;;;;;;;37.00;16.08;;;;;;;16.79;89.39;100135.41;4891914;29;20467;-75
2021/10/19 07:00:40;;;;;;;35.70;17.60;;;;;;;16.65;89.45;100113.41;4880730;29;20044;-75
2021/10/19 07:03:08;;;;;;;33.50;17.45;;;;;;;16.53;88.48;100107.66;4883516;29;20099;-76
2021/10/19 07:05:33;;;;;;;34.30;17.60;;;;;;;16.50;88.46;100122.06;4896577;29;20028;-75
2021/10/19 07:07:59;;;;;;;38.72;18.50;;;;;;;16.45;87.87;100122.19;4895085;29;20036;-72
2021/10/19 07:10:27;;;;;;;31.17;18.70;;;;;;;16.50;88.21;100120.13;4895034;29;20395;-75
2021/10/19 07:12:52;;;;;;;32.42;18.55;;;;;;;16.53;87.77;100133.31;4899576;29;20088;-75
2021/10/19 07:15:20;;;;;;;48.63;20.65;;;;;;;16.48;87.42;100130.66;4893244;29;20063;-74
2021/10/19 07:17:47;;;;;;;38.65;19.73;;;;;;;16.45;87.64;100136.81;4887543;29;20115;-75
2021/10/19 07:20:13;;;;;;;34.38;20.13;;;;;;;16.51;87.25;100130.03;4894320;29;20036;-75
2021/10/19 07:22:39;;;;;;;43.20;22.10;;;;;;;16.55;86.73;100128.28;4900648;29;20032;-73
2021/10/19 07:25:06;;;;;;;47.58;23.35;;;;;;;16.44;87.42;100137.97;4891934;29;20051;-74
2021/10/19 07:27:32;;;;;;;49.35;23.25;;;;;;;16.43;87.18;100132.72;4887853;29;20037;-75
2021/10/19 07:29:58;;;;;;;53.33;22.02;;;;;;;16.46;87.16;100138.44;4905712;29;20033;-74
2021/10/19 07:32:25;;;;;;;49.00;23.05;;;;;;;16.49;86.75;100132.31;4893391;29;20037;-74
2021/10/19 07:34:51;;;;;;;44.75;22.42;;;;;;;16.61;86.73;100139.22;4904863;29;20028;-73
2021/10/19 07:37:17;;;;;;;47.05;23.52;;;;;;;16.53;86.59;100138.81;4902115;29;20032;-75
2021/10/19 07:39:43;;;;;;;46.55;23.40;;;;;;;16.60;86.43;100138.38;4909423;29;20033;-74
2021/10/19 07:42:13;;;;;;;44.22;22.15;;;;;;;16.55;85.90;100133.81;4895453;29;20020;-74
2021/10/19 07:44:41;;;;;;;51.38;22.63;;;;;;;16.57;85.43;100148.13;4892718;29;20036;-75
2021/10/19 07:47:09;;;;;;;41.53;21.65;;;;;;;16.64;84.53;100155.94;4890895;29;20029;-73
2021/10/19 07:49:34;;;;;;;45.22;22.15;;;;;;;16.65;84.48;100143.78;4890754;29;20040;-75
2021/10/19 07:52:09;;;;;;;36.25;21.52;;;;;;;16.70;83.50;100187.81;4898142;29;20036;-73
2021/10/19 07:54:35;;;;;;;51.37;23.93;;;;;;;16.68;83.38;100150.63;4899941;29;20037;-75
2021/10/19 07:57:03;;;;;;;40.72;22.42;;;;;;;16.75;82.51;100156.53;4879299;29;20040;-74
2021/10/19 07:59:31;;;;;;;37.17;20.40;;;;;;;16.80;82.15;100137.06;4909592;29;20053;-74
2021/10/19 08:02:06;;;;;;;37.78;22.00;;;;;;;16.93;82.34;100152.75;4916204;29;20107;-73
2021/10/19 08:04:32;;;;;;;45.17;20.90;;;;;;;16.98;81.61;100129.75;4912505;29;20052;-74
2021/10/19 08:06:58;;;;;;;33.33;21.92;;;;;;;17.06;81.20;100141.97;4916434;29;20075;-74
2021/10/19 08:09:24;;;;;;;36.20;20.77;;;;;;;17.14;80.15;100124.59;4916937;29;20060;-73
2021/10/19 08:11:49;;;;;;;35.58;21.38;;;;;;;17.31;80.18;100137.69;4926989;29;20033;-74
2021/10/19 08:14:18;;;;;;;39.97;20.65;;;;;;;17.37;79.26;100150.22;4916547;29;20044;-74
2021/10/19 08:16:44;;;;;;;35.05;22.30;;;;;;;17.49;79.21;100144.09;4931976;29;20032;-74
2021/10/19 08:19:09;;;;;;;43.97;19.92;;;;;;;17.51;78.72;100141.84;4916324;29;20054;-74
2021/10/19 08:21:38;;;;;;;36.08;20.52;;;;;;;17.55;78.73;100145.59;4913318;29;20040;-75
2021/10/19 08:24:04;;;;;;;40.50;20.65;;;;;;;17.74;78.62;100147.28;4902959;29;20530;-74
2021/10/19 08:26:30;;;;;;;34.28;19.30;;;;;;;17.66;78.31;100145.31;4912016;29;20123;-74
2021/10/19 08:29:03;;;;;;;32.13;18.77;;;;;;;17.69;77.97;100150.19;4916437;29;20755;-74
2021/10/19 08:31:31;;;;;;;39.05;18.88;;;;;;;17.53;78.43;100134.03;4930128;29;20028;-75
2021/10/19 08:33:58;;;;;;;31.00;18.48;;;;;;;17.66;78.24;100140.59;4921093;29;20029;-74
2021/10/19 08:36:24;;;;;;;32.42;16.88;;;;;;;17.79;78.29;100145.19;4914907;29;20035;-76
2021/10/19 08:38:51;;;;;;;32.22;17.25;;;;;;;17.78;77.21;100151.03;4903479;29;20032;-76
2021/10/19 08:41:18;;;;;;;27.85;17.42;;;;;;;17.68;76.95;100132.78;4913816;29;20116;-74
2021/10/19 08:43:45;;;;;;;32.53;18.45;;;;;;;17.70;76.81;100146.31;4932953;29;20084;-75
2021/10/19 08:46:14;;;;;;;27.75;16.88;;;;;;;17.82;77.48;100170.56;4917092;29;20037;-74
2021/10/19 08:48:40;;;;;;;25.73;17.05;;;;;;;18.00;76.83;100152.09;4920127;29;20024;-75
2021/10/19 08:51:09;;;;;;;36.28;19.58;;;;;;;18.14;76.26;100145.28;4920228;29;20024;-75
2021/10/19 08:53:37;;;;;;;26.77;17.50;;;;;;;18.21;75.01;100144.81;4919048;29;20028;-76
2021/10/19 08:56:04;;;;;;;35.88;17.67;;;;;;;18.23;74.99;100141.72;4898965;29;20031;-75
2021/10/19 08:58:32;;;;;;;38.85;17.13;;;;;;;18.35;74.69;100149.34;4918798;29;20431;-75
2021/10/19 09:01:11;;;;;;;32.10;16.60;;;;;;;18.33;74.20;100126.75;4919434;29;20024;-75
2021/10/19 09:03:52;;;;;;;28.55;16.25;;;;;;;18.49;74.21;100152.78;4913681;29;20079;-75
2021/10/19 09:06:37;;;;;;;32.65;17.58;;;;;;;18.58;73.74;100152.78;4918532;29;20491;-75
2021/10/19 09:09:24;;;;;;;26.70;17.03;;;;;;;18.57;72.84;100146.41;4923129;29;20056;-75
2021/10/19 09:12:06;;;;;;;34.65;16.85;;;;;;;18.59;72.51;100146.13;4916797;29;20271;-76
2021/10/19 09:14:34;;;;;;;39.83;16.42;;;;;;;18.82;71.68;100179.94;4903371;29;20032;-75
2021/10/19 09:17:04;;;;;;;31.35;16.02;;;;;;;19.22;70.39;100149.25;4919566;29;20036;-76
2021/10/19 09:19:37;;;;;;;26.92;15.48;;;;;;;19.59;69.76;100135.72;4904033;29;20486;-75
2021/10/19 09:22:08;;;;;;;25.42;15.57;;;;;;;20.18;68.34;100125.75;4914236;29;20028;-75
2021/10/19 09:24:39;;;;;;;30.42;14.68;;;;;;;20.68;65.53;100136.00;4904245;29;20020;-75
2021/10/19 09:27:06;;;;;;;26.83;13.75;;;;;;;20.98;64.31;100127.50;4915338;29;20024;-77
2021/10/19 09:29:45;;;;;;;20.90;13.05;;;;;;;21.37;62.73;100144.72;4912875;29;20034;-75
2021/10/19 09:32:15;;;;;;;22.00;12.15;;;;;;;21.27;61.73;100117.38;4909097;29;20055;-75
2021/10/19 09:34:45;;;;;;;33.50;12.77;;;;;;;21.17;61.14;100137.28;4900695;29;20386;-75
2021/10/19 09:37:17;;;;;;;15.32;12.13;;;;;;;20.84;62.46;100127.03;4929055;29;20067;-77
2021/10/19 09:39:49;;;;;;;21.08;12.55;;;;;;;20.53;62.98;100133.78;4916623;29;20019;-76
2021/10/19 09:42:25;;;;;;;32.08;13.43;;;;;;;20.42;64.09;100132.63;4919561;29;20028;-76
2021/10/19 09:44:57;;;;;;;31.15;13.93;;;;;;;20.59;63.56;100149.13;4898105;29;20031;-73
2021/10/19 09:47:36;;;;;;;22.48;11.43;;;;;;;20.48;64.24;100148.72;4918342;29;20119;-75
2021/10/19 09:50:03;;;;;;;19.45;12.32;;;;;;;20.53;63.87;100150.47;4916501;29;20032;-73
2021/10/19 09:52:37;;;;;;;19.05;11.45;;;;;;;20.89;63.63;100126.78;4902054;29;20024;-75
2021/10/19 09:55:07;;;;;;;21.77;12.10;;;;;;;21.21;61.73;100152.13;4918108;29;20046;-75
2021/10/19 09:57:38;;;;;;;22.08;11.40;;;;;;;21.53;60.42;100107.91;4918149;29;20031;-75
2021/10/19 10:00:05;;;;;;;30.20;11.80;;;;;;;21.73;60.03;100139.56;4925022;29;20037;-75
2021/10/19 10:02:40;;;;;;;19.95;12.55;;;;;;;21.97;58.64;100111.66;4915184;29;20121;-76
2021/10/19 10:05:17;;;;;;;19.52;10.52;;;;;;;22.05;58.92;100128.59;4920093;29;20040;-76
2021/10/19 10:07:45;;;;;;;15.88;10.82;;;;;;;22.13;57.95;100108.16;4928954;29;20036;-75
2021/10/19 10:10:16;;;;;;;14.65;10.25;;;;;;;22.24;58.80;100189.25;4903657;29;20036;-75
2021/10/19 10:12:49;;;;;;;22.25;11.13;;;;;;;22.55;58.17;100124.53;4918797;29;20052;-74
2021/10/19 10:15:23;;;;;;;19.35;10.38;;;;;;;22.76;56.68;100135.47;4927226;29;20087;-75
2021/10/19 10:18:00;;;;;;;15.98;11.45;;;;;;;22.78;57.55;100110.84;4904583;29;20550;-75
2021/10/19 10:20:43;;;;;;;19.05;9.85;;;;;;;23.27;55.81;100125.69;4929594;29;20043;-75
2021/10/19 10:23:42;;;;;;;13.00;9.80;;;;;;;23.45;55.35;100126.13;4922149;29;20474;-77
2021/10/19 10:26:22;;;;;;;21.67;10.05;;;;;;;23.50;54.88;100117.50;4908895;29;20533;-76
2021/10/19 10:28:51;;;;;;;20.85;9.60;;;;;;;23.84;53.36;100115.88;4912204;29;20039;-75
2021/10/19 10:31:23;;;;;;;10.13;9.05;;;;;;;24.11;52.99;100123.69;4903552;29;20028;-76
2021/10/19 10:34:09;;;;;;;12.77;9.38;;;;;;;24.37;52.29;100109.91;4912402;29;20095;-76
2021/10/19 10:36:42;;;;;;;19.02;9.07;;;;;;;24.86;50.89;100130.84;4899920;29;20049;-77
2021/10/19 10:39:17;;;;;;;18.60;9.65;;;;;;;25.04;50.94;100114.41;4913367;29;20093;-76
2021/10/19 10:41:46;;;;;;;;;;;;;;;25.24;48.73;100098.34;4913424;29;20031;-74
2021/10/19 10:44:13;;;;;;;11.27;8.52;;;;;;;25.22;49.82;100111.91;4915266;29;19919;-75
2021/10/19 10:46:40;;;;;;;14.98;8.57;;;;;;;25.70;48.47;100105.91;4915329;29;20020;-74
2021/10/19 10:49:12;;;;;;;19.42;8.90;;;;;;;25.74;46.98;100111.56;4903931;29;20036;-76
2021/10/19 10:51:40;;;;;;;10.95;8.65;;;;;;;25.36;47.71;100136.53;4909875;29;20052;-77
2021/10/19 10:54:12;;;;;;;19.73;8.63;;;;;;;24.49;50.25;100108.13;4927917;29;20024;-74
2021/10/19 10:57:10;;;;;;;15.77;8.55;;;;;;;23.78;52.15;100125.72;4917678;29;20039;-74
2021/10/19 10:59:35;;;;;;;23.70;9.80;;;;;;;23.85;52.48;100111.94;4903006;29;20047;-75
2021/10/19 11:02:09;;;;;;;17.20;9.40;;;;;;;23.77;52.96;100093.41;4917771;29;20028;-77
2021/10/19 11:05:01;;;;;;;;;;;;;;;;;;;;;
2021/10/19 11:07:30;;;;;;;17.52;8.85;;;;;;;24.47;51.32;100102.09;4914074;29;20111;-77
2021/10/19 11:09:59;;;;;;;10.23;9.23;;;;;;;25.04;49.72;100099.59;4929826;29;20032;-76
2021/10/19 11:12:35;;;;;;;15.30;8.50;;;;;;;25.70;48.41;100102.28;4909249;29;20047;-78
2021/10/19 11:15:11;;;;;;;16.75;8.10;;;;;;;25.86;48.08;100088.13;4915380;29;20069;-79
2021/10/19 11:18:22;;;;;;;14.05;8.07;;;;;;;26.18;45.65;100130.63;4898976;29;20080;-77
2021/10/19 11:21:53;;;;;;;;;;;;;;;;;;;;;
2021/10/19 11:24:23;;;;;;;18.02;8.40;;;;;;;26.15;47.48;100069.72;4832642;29;20400;-78
2021/10/19 11:27:02;;;;;;;;;;;;;;;;;;;;;
2021/10/19 11:29:42;;;;;;;15.45;8.20;;;;;;;25.90;46.42;100055.38;4907596;29;20119;-78
2021/10/19 11:32:24;;;;;;;;;;;;;;;;;;;;;